Aloha, Louisiana
Current Conditions -  °F | °C
As of 8:53 AM on Wednesday 22 Oct 2014 (Local Time) from KAEX Reporting Station
Clear Clear  
Wind Chill: 18°   Ceiling: Unl
Heat Index: 18°   Visibility: 8mi
Dew Point: 15°   Wind: 6mph
Humidity: 84%   Direction: 60°ENE
Pressure: 30.11"   Gusts: NA
Location:  31.503°N, 92.6476°W
Report Text: KAEX 221353Z 06005KT 8SM CLR 18/15 A3011 RMK AO2 SLP200 T01780150
Loading
Personal Weather Stations






























Interactive Weather Map
Tropical Storm Tracking
New forecast layout! Learn more

10-Day Weather Forecast

Advertisements
Track Severe Weather on mobile